createdAt,value
2022-08-17T00:00:43.835Z,71.38
2022-08-17T00:03:13.587Z,71.28
2022-08-17T00:05:43.847Z,71.12
2022-08-17T00:08:14.940Z,70.98
2022-08-17T00:10:45.239Z,70.87
2022-08-17T00:13:41.305Z,70.72
2022-08-17T00:16:18.308Z,70.66
2022-08-17T00:19:06.219Z,70.92
2022-08-17T00:22:31.670Z,71.29
2022-08-17T00:24:27.830Z,71.51
2022-08-17T00:26:55.587Z,71.76
2022-08-17T00:29:23.541Z,72.04
2022-08-17T00:31:51.809Z,72.15
2022-08-17T00:34:19.999Z,72.30
2022-08-17T00:36:47.842Z,72.43
2022-08-17T00:39:16.351Z,72.56
2022-08-17T00:41:44.405Z,72.83
2022-08-17T00:44:12.399Z,72.32
2022-08-17T00:46:43.209Z,71.68
2022-08-17T00:49:13.464Z,72.19
2022-08-17T00:52:11.731Z,72.38
2022-08-17T00:54:42.618Z,72.04
2022-08-17T00:57:27.477Z,72.07
2022-08-17T01:00:05.314Z,72.06
2022-08-17T01:02:42.559Z,71.54
2022-08-17T01:05:22.370Z,71.42
2022-08-17T01:07:53.430Z,71.42
2022-08-17T01:10:59.305Z,71.44
2022-08-17T01:13:16.778Z,71.41
2022-08-17T01:15:54.160Z,71.73
2022-08-17T01:18:22.163Z,71.63
2022-08-17T01:20:54.048Z,72.17
2022-08-17T01:23:25.075Z,72.22
2022-08-17T01:25:56.873Z,71.81
2022-08-17T01:28:33.374Z,71.52
2022-08-17T01:31:16.376Z,71.78
2022-08-17T01:33:44.675Z,71.52
2022-08-17T01:36:12.533Z,71.51
2022-08-17T01:38:40.581Z,71.37
2022-08-17T01:41:14.138Z,71.28
2022-08-17T01:44:05.094Z,70.99
2022-08-17T01:46:37.326Z,70.82
2022-08-17T01:49:11.271Z,70.68
2022-08-17T01:51:40.166Z,70.52
2022-08-17T01:54:12.875Z,70.48
2022-08-17T01:56:47.166Z,70.36
2022-08-17T01:59:18.864Z,70.09
2022-08-17T02:01:47.567Z,69.64
2022-08-17T02:04:15.751Z,69.87
2022-08-17T02:06:52.532Z,70.34
2022-08-17T02:09:25.526Z,70.84
2022-08-17T02:11:59.521Z,71.13
2022-08-17T02:14:27.384Z,71.47
2022-08-17T02:16:56.235Z,71.91
2022-08-17T02:19:24.310Z,72.28
2022-08-17T02:21:54.224Z,72.60
2022-08-17T02:24:58.877Z,72.82
2022-08-17T02:27:15.794Z,72.95
2022-08-17T02:29:43.743Z,73.32
2022-08-17T02:32:28.032Z,73.49
2022-08-17T02:34:58.183Z,73.50
2022-08-17T02:37:27.907Z,73.63
2022-08-17T02:39:59.751Z,73.76
2022-08-17T02:42:38.404Z,73.78
2022-08-17T02:45:17.273Z,74.21
2022-08-17T02:47:46.393Z,74.21
2022-08-17T02:50:17.509Z,73.84
2022-08-17T02:52:53.237Z,73.51
2022-08-17T02:55:40.250Z,73.06
2022-08-17T02:58:10.670Z,72.49
2022-08-17T03:00:42.965Z,72.11
2022-08-17T03:03:13.839Z,71.86
2022-08-17T03:05:41.947Z,71.03
2022-08-17T03:08:11.765Z,71.09
2022-08-17T03:10:42.515Z,71.12
2022-08-17T03:13:14.466Z,71.10
2022-08-17T03:15:47.228Z,71.09
2022-08-17T03:18:25.636Z,71.13
2022-08-17T03:20:58.536Z,71.18
2022-08-17T03:23:29.605Z,71.19
2022-08-17T03:25:59.137Z,71.22
2022-08-17T03:28:28.397Z,71.16
2022-08-17T03:30:56.150Z,71.04
2022-08-17T03:33:24.002Z,70.95
2022-08-17T03:35:52.218Z,70.96
2022-08-17T03:38:20.012Z,70.88
2022-08-17T03:40:59.123Z,70.83
2022-08-17T03:43:31.434Z,70.81
2022-08-17T03:46:28.979Z,70.91
2022-08-17T03:49:24.325Z,70.89
2022-08-17T03:52:12.626Z,70.81
2022-08-17T03:55:00.753Z,70.88
2022-08-17T03:57:29.327Z,70.92
2022-08-17T03:59:57.405Z,70.96
2022-08-17T04:02:31.766Z,70.87
2022-08-17T04:05:00.148Z,70.65
2022-08-17T04:07:30.808Z,71.03
2022-08-17T04:09:59.881Z,71.44
2022-08-17T04:12:31.769Z,71.83
2022-08-17T04:15:00.005Z,72.23
2022-08-17T04:17:29.457Z,72.68
2022-08-17T04:19:57.745Z,72.96
2022-08-17T04:22:30.333Z,73.31
2022-08-17T04:25:15.965Z,73.59
2022-08-17T04:27:43.829Z,73.53
2022-08-17T04:30:13.471Z,73.27
2022-08-17T04:33:06.156Z,73.19
2022-08-17T04:35:41.984Z,72.95
2022-08-17T04:38:14.846Z,72.74
2022-08-17T04:41:02.344Z,72.62
2022-08-17T04:43:32.781Z,72.61
2022-08-17T04:46:05.381Z,72.57
2022-08-17T04:48:37.735Z,72.57
2022-08-17T04:51:12.092Z,72.59
2022-08-17T04:53:42.737Z,72.60
2022-08-17T04:56:16.624Z,72.71
2022-08-17T04:58:50.845Z,72.71
2022-08-17T05:01:23.160Z,72.77
2022-08-17T05:03:56.343Z,72.74
2022-08-17T05:06:24.578Z,72.84
2022-08-17T05:08:52.631Z,72.87
2022-08-17T05:11:21.735Z,72.77
2022-08-17T05:13:50.448Z,72.70
2022-08-17T05:16:20.994Z,72.94
2022-08-17T05:18:49.622Z,72.89
2022-08-17T05:21:19.006Z,72.88
2022-08-17T05:23:54.941Z,73.04
2022-08-17T05:26:27.335Z,72.76
2022-08-17T05:29:00.361Z,72.91
2022-08-17T05:31:31.160Z,72.66
2022-08-17T05:33:59.157Z,72.70
2022-08-17T05:36:37.920Z,72.93
2022-08-17T05:39:16.076Z,72.81
2022-08-17T05:41:47.569Z,72.66
2022-08-17T05:44:16.457Z,72.82
2022-08-17T05:46:49.978Z,72.67
2022-08-17T05:49:25.972Z,72.56
2022-08-17T05:52:21.851Z,72.49
2022-08-17T05:55:10.715Z,72.55
2022-08-17T05:57:43.596Z,72.28
2022-08-17T06:00:30.534Z,72.15
2022-08-17T06:03:17.866Z,71.98
2022-08-17T06:06:25.193Z,72.00
2022-08-17T06:09:33.015Z,71.87
2022-08-17T06:12:20.046Z,71.79
2022-08-17T06:15:28.495Z,71.64
2022-08-17T06:18:01.276Z,71.43
2022-08-17T06:20:46.297Z,71.23
2022-08-17T06:23:41.221Z,70.85
2022-08-17T06:26:15.055Z,70.60
2022-08-17T06:29:01.538Z,70.32
2022-08-17T06:31:34.995Z,70.44
2022-08-17T06:34:06.670Z,70.25
2022-08-17T06:37:07.955Z,69.37
2022-08-17T06:39:48.979Z,68.85
2022-08-17T06:42:59.887Z,67.73
2022-08-17T06:46:17.056Z,67.84
2022-08-17T06:48:54.492Z,67.40
2022-08-17T06:51:41.077Z,66.57
2022-08-17T06:54:12.037Z,65.37
2022-08-17T06:57:06.745Z,65.17
2022-08-17T06:59:56.213Z,65.54
2022-08-17T07:02:53.106Z,65.13
2022-08-17T07:05:27.648Z,64.51
2022-08-17T07:08:10.615Z,63.26
2022-08-17T07:11:13.150Z,63.67
2022-08-17T07:13:49.190Z,63.73
2022-08-17T07:16:38.923Z,62.19
2022-08-17T07:19:14.028Z,61.75
2022-08-17T07:22:01.904Z,59.76
2022-08-17T07:24:52.056Z,59.23
2022-08-17T07:27:36.071Z,58.77
2022-08-17T07:30:27.456Z,59.46
2022-08-17T07:33:08.641Z,58.44
2022-08-17T07:35:48.311Z,57.87
2022-08-17T07:38:34.370Z,57.06
2022-08-17T07:41:53.105Z,56.86
2022-08-17T07:44:16.718Z,57.36
2022-08-17T07:47:10.455Z,56.70
2022-08-17T07:49:42.306Z,56.88
2022-08-17T07:52:51.853Z,55.74
2022-08-17T07:55:32.808Z,54.13
2022-08-17T07:58:00.790Z,53.93
2022-08-17T08:00:32.786Z,52.00
2022-08-17T08:03:27.370Z,49.88
2022-08-17T08:06:02.245Z,49.22
2022-08-17T08:08:50.681Z,49.19
2022-08-17T08:11:38.367Z,49.35
2022-08-17T08:14:33.794Z,48.55
2022-08-17T08:17:09.340Z,47.00
2022-08-17T08:19:39.394Z,44.64
2022-08-17T08:22:33.742Z,44.80
2022-08-17T08:25:12.003Z,44.89
2022-08-17T08:27:54.163Z,44.15
2022-08-17T08:30:22.712Z,43.06
2022-08-17T08:33:05.786Z,42.34
2022-08-17T08:36:07.587Z,40.06
2022-08-17T08:39:04.167Z,38.37
2022-08-17T08:42:13.627Z,38.21
2022-08-17T08:45:14.105Z,37.19
2022-08-17T08:48:56.855Z,35.91
2022-08-17T08:51:37.934Z,35.34
2022-08-17T08:54:17.882Z,34.98
2022-08-17T08:57:34.294Z,34.75
2022-08-17T09:00:21.031Z,34.12
2022-08-17T09:03:07.525Z,34.50
2022-08-17T09:05:50.200Z,35.00
2022-08-17T09:08:54.932Z,33.85
2022-08-17T09:12:01.901Z,34.18
2022-08-17T09:14:59.619Z,31.49
2022-08-17T09:17:43.256Z,31.35
2022-08-17T09:20:40.692Z,32.13
2022-08-17T09:23:42.329Z,31.79
2022-08-17T09:26:16.412Z,31.28
2022-08-17T09:28:50.785Z,30.45
2022-08-17T09:31:29.949Z,30.69
2022-08-17T09:34:05.018Z,29.39
2022-08-17T09:37:22.843Z,29.34
2022-08-17T09:39:57.569Z,29.98
2022-08-17T09:43:05.100Z,28.78
2022-08-17T09:45:44.191Z,29.23
2022-08-17T09:48:27.685Z,29.79
2022-08-17T09:51:06.551Z,28.80
2022-08-17T09:53:39.402Z,28.97
2022-08-17T09:56:32.028Z,28.47
2022-08-17T09:59:27.683Z,27.70
2022-08-17T10:02:34.064Z,28.13
2022-08-17T10:05:32.915Z,28.06
2022-08-17T10:09:08.376Z,27.47
2022-08-17T10:12:05.705Z,27.70
2022-08-17T10:15:07.652Z,27.41
2022-08-17T10:18:23.593Z,27.54
2022-08-17T10:21:34.342Z,27.94
2022-08-17T10:24:39.517Z,28.37
2022-08-17T10:27:52.665Z,27.83
2022-08-17T10:30:28.304Z,28.45
2022-08-17T10:33:01.480Z,28.83
2022-08-17T10:35:49.608Z,28.41
2022-08-17T10:38:48.538Z,28.61
2022-08-17T10:41:24.218Z,28.58
2022-08-17T10:44:40.392Z,28.70
2022-08-17T10:47:16.808Z,28.42
2022-08-17T10:49:52.231Z,28.54
2022-08-17T10:52:19.945Z,27.99
2022-08-17T10:54:48.553Z,28.20
2022-08-17T10:57:34.424Z,28.19
2022-08-17T11:00:12.990Z,28.39
2022-08-17T11:02:54.352Z,28.41
2022-08-17T11:05:43.821Z,28.48
2022-08-17T11:09:20.226Z,27.96
2022-08-17T11:12:22.194Z,28.67
2022-08-17T11:15:04.715Z,28.02
2022-08-17T11:17:52.204Z,27.42
2022-08-17T11:20:45.756Z,27.26
2022-08-17T11:23:40.825Z,26.87
2022-08-17T11:26:32.125Z,27.50
2022-08-17T11:29:05.438Z,27.73
2022-08-17T11:31:38.891Z,27.77
2022-08-17T11:34:26.588Z,27.60
2022-08-17T11:37:45.478Z,27.90
2022-08-17T11:40:35.668Z,27.43
2022-08-17T11:43:25.640Z,27.18
2022-08-17T11:46:07.685Z,27.69
2022-08-17T11:49:22.614Z,28.48
2022-08-17T11:52:01.141Z,29.34
2022-08-17T11:54:47.662Z,30.07
2022-08-17T11:57:27.774Z,30.44
2022-08-17T12:00:06.001Z,30.67
2022-08-17T12:02:49.135Z,30.97
2022-08-17T12:05:26.761Z,31.26
2022-08-17T12:08:10.916Z,31.00
2022-08-17T12:10:52.405Z,30.56
2022-08-17T12:13:21.959Z,30.76
2022-08-17T12:15:52.902Z,30.75
2022-08-17T12:18:29.773Z,30.70
2022-08-17T12:21:59.569Z,30.29
2022-08-17T12:25:10.879Z,30.02
2022-08-17T12:28:05.135Z,30.34
2022-08-17T12:30:36.111Z,30.07
2022-08-17T12:33:06.738Z,30.01
2022-08-17T12:35:39.066Z,30.74
2022-08-17T12:38:30.416Z,30.56
2022-08-17T12:41:22.038Z,29.96
2022-08-17T12:44:27.590Z,29.84
2022-08-17T12:47:07.899Z,30.03
2022-08-17T12:49:39.543Z,30.06
2022-08-17T12:52:14.908Z,29.95
2022-08-17T12:55:01.993Z,30.33
2022-08-17T12:57:45.692Z,29.66
2022-08-17T13:00:21.118Z,29.82
2022-08-17T13:03:03.429Z,29.95
2022-08-17T13:05:36.329Z,30.04
2022-08-17T13:08:18.572Z,29.77
2022-08-17T13:11:09.427Z,29.82
2022-08-17T13:13:42.704Z,30.49
2022-08-17T13:16:17.338Z,30.30
2022-08-17T13:19:17.638Z,29.97
2022-08-17T13:22:00.466Z,30.53
2022-08-17T13:24:37.798Z,30.92
2022-08-17T13:27:10.551Z,30.81
2022-08-17T13:29:39.004Z,30.70
2022-08-17T13:32:12.917Z,30.75
2022-08-17T13:35:12.867Z,30.85
2022-08-17T13:38:02.681Z,31.25
2022-08-17T13:40:41.791Z,31.57
2022-08-17T13:43:11.138Z,31.70
2022-08-17T13:45:50.451Z,31.49
2022-08-17T13:48:26.823Z,31.77
2022-08-17T13:50:54.518Z,31.86
2022-08-17T13:53:26.706Z,31.68
2022-08-17T13:56:37.746Z,32.01
2022-08-17T13:59:13.722Z,32.52
2022-08-17T14:01:53.169Z,32.83
2022-08-17T14:04:29.487Z,33.15
2022-08-17T14:07:15.710Z,33.32
2022-08-17T14:09:53.348Z,33.47
2022-08-17T14:12:25.173Z,33.67
2022-08-17T14:14:56.317Z,33.76
2022-08-17T14:17:29.166Z,33.66
2022-08-17T14:19:58.863Z,34.08
2022-08-17T14:22:30.786Z,33.98
2022-08-17T14:25:01.737Z,34.42
2022-08-17T14:27:33.702Z,33.56
2022-08-17T14:30:10.487Z,33.38
2022-08-17T14:32:38.498Z,33.75
2022-08-17T14:35:07.101Z,33.96
2022-08-17T14:37:38.519Z,33.60
2022-08-17T14:40:11.263Z,33.49
2022-08-17T14:42:44.519Z,33.77
2022-08-17T14:45:30.459Z,33.91
2022-08-17T14:48:07.865Z,33.84
2022-08-17T14:50:41.862Z,33.42
2022-08-17T14:53:13.113Z,33.96
2022-08-17T14:55:41.114Z,33.58
2022-08-17T14:58:09.320Z,33.16
2022-08-17T15:00:38.689Z,33.53
2022-08-17T15:03:06.423Z,33.55
2022-08-17T15:05:36.685Z,33.52
2022-08-17T15:08:05.883Z,33.41
2022-08-17T15:10:37.342Z,33.36
2022-08-17T15:13:21.651Z,33.58
2022-08-17T15:15:50.173Z,33.66
2022-08-17T15:18:20.768Z,33.74
2022-08-17T15:20:50.773Z,33.95
2022-08-17T15:23:25.336Z,34.21
2022-08-17T15:25:54.616Z,34.42
2022-08-17T15:28:25.653Z,34.33
2022-08-17T15:30:55.639Z,34.22
2022-08-17T15:33:29.536Z,34.31
2022-08-17T15:36:03.967Z,34.65
2022-08-17T15:38:34.212Z,34.72
2022-08-17T15:41:02.087Z,34.61
2022-08-17T15:43:33.913Z,35.17
2022-08-17T15:46:05.796Z,36.11
2022-08-17T15:48:41.883Z,35.21
2022-08-17T15:51:28.136Z,35.14
2022-08-17T15:54:18.647Z,34.71
2022-08-17T15:56:56.705Z,34.95
2022-08-17T15:59:24.581Z,34.72
2022-08-17T16:03:13.445Z,34.74
2022-08-17T16:04:44.231Z,34.89
2022-08-17T16:07:14.725Z,35.03
2022-08-17T16:09:43.983Z,35.53
2022-08-17T16:12:19.341Z,35.64
2022-08-17T16:14:49.350Z,35.58
2022-08-17T16:17:39.072Z,35.27
2022-08-17T16:20:06.429Z,35.63
2022-08-17T16:22:41.508Z,35.39
2022-08-17T16:25:19.027Z,35.08
2022-08-17T16:27:50.468Z,35.08
2022-08-17T16:30:18.384Z,34.77
2022-08-17T16:32:47.339Z,35.23
2022-08-17T16:35:18.771Z,35.37
2022-08-17T16:37:47.661Z,35.55
2022-08-17T16:40:17.085Z,35.53
2022-08-17T16:42:48.446Z,34.95
2022-08-17T16:45:21.626Z,35.10
2022-08-17T16:47:52.451Z,35.14
2022-08-17T16:50:24.102Z,35.36
2022-08-17T16:52:52.256Z,35.87
2022-08-17T16:55:22.679Z,38.37
2022-08-17T16:57:50.993Z,38.78
2022-08-17T17:00:21.039Z,38.94
2022-08-17T17:02:49.726Z,39.01
2022-08-17T17:05:42.434Z,40.09
2022-08-17T17:08:25.858Z,39.75
2022-08-17T17:10:56.595Z,38.18
2022-08-17T17:13:40.728Z,37.71
2022-08-17T17:16:32.163Z,37.71
2022-08-17T17:19:34.186Z,37.57
2022-08-17T17:22:25.578Z,37.62
2022-08-17T17:25:12.674Z,37.83
2022-08-17T17:28:00.273Z,37.85
2022-08-17T17:30:43.133Z,38.25
2022-08-17T17:33:19.247Z,38.96
2022-08-17T17:36:25.857Z,39.11
2022-08-17T17:39:00.523Z,39.16
2022-08-17T17:41:37.690Z,39.52
2022-08-17T17:44:11.840Z,39.66
2022-08-17T17:46:49.476Z,40.35
2022-08-17T17:49:19.199Z,41.15
2022-08-17T17:52:19.393Z,41.13
2022-08-17T17:55:31.579Z,41.37
2022-08-17T17:58:20.280Z,41.40
2022-08-17T18:01:17.640Z,41.31
2022-08-17T18:04:25.604Z,41.77
2022-08-17T18:07:32.657Z,42.85
2022-08-17T18:10:29.431Z,43.18
2022-08-17T18:13:37.822Z,45.89
2022-08-17T18:16:10.927Z,47.30
2022-08-17T18:18:44.630Z,47.86
2022-08-17T18:21:23.624Z,47.87
2022-08-17T18:23:57.301Z,46.88
2022-08-17T18:26:44.741Z,46.99
2022-08-17T18:29:23.922Z,46.72
2022-08-17T18:32:33.699Z,46.50
2022-08-17T18:35:11.032Z,47.27
2022-08-17T18:38:19.834Z,47.70
2022-08-17T18:41:04.694Z,47.92
2022-08-17T18:43:52.835Z,48.53
2022-08-17T18:46:35.320Z,49.27
2022-08-17T18:49:26.384Z,49.35
2022-08-17T18:52:09.473Z,49.64
2022-08-17T18:54:37.829Z,49.89
2022-08-17T18:57:07.750Z,50.27
2022-08-17T18:59:49.836Z,50.78
2022-08-17T19:02:45.673Z,52.18
2022-08-17T19:05:38.228Z,53.52
2022-08-17T19:08:29.569Z,53.28
2022-08-17T19:11:30.997Z,52.97
2022-08-17T19:14:15.316Z,52.12
2022-08-17T19:17:07.782Z,52.44
2022-08-17T19:19:35.612Z,52.44
2022-08-17T19:22:31.121Z,52.42
2022-08-17T19:25:16.183Z,52.24
2022-08-17T19:28:01.339Z,51.96
2022-08-17T19:30:31.349Z,51.83
2022-08-17T19:33:01.615Z,51.97
2022-08-17T19:35:44.687Z,52.16
2022-08-17T19:38:43.518Z,53.71
2022-08-17T19:41:42.925Z,56.30
2022-08-17T19:44:37.939Z,56.76
2022-08-17T19:47:51.034Z,55.74
2022-08-17T19:50:38.623Z,57.14
2022-08-17T19:54:01.700Z,57.96
2022-08-17T19:56:48.033Z,57.71
2022-08-17T19:59:49.577Z,57.94
2022-08-17T20:02:50.828Z,57.96
2022-08-17T20:05:28.776Z,57.43
2022-08-17T20:08:08.117Z,57.63
2022-08-17T20:10:56.286Z,58.71
2022-08-17T20:14:05.178Z,59.45
2022-08-17T20:16:36.835Z,59.34
2022-08-17T20:19:32.266Z,59.22
2022-08-17T20:22:19.284Z,59.08
2022-08-17T20:25:14.571Z,59.61
2022-08-17T20:28:06.653Z,59.27
2022-08-17T20:30:43.166Z,58.91
2022-08-17T20:33:37.101Z,58.74
2022-08-17T20:36:39.309Z,58.47
2022-08-17T20:39:31.641Z,58.04
2022-08-17T20:42:39.989Z,57.96
2022-08-17T20:45:26.563Z,57.75
2022-08-17T20:51:14.510Z,57.36
2022-08-17T20:53:51.597Z,57.73
2022-08-17T20:56:44.389Z,57.50
2022-08-17T20:59:25.915Z,57.38
2022-08-17T21:02:12.439Z,57.43
2022-08-17T21:04:50.766Z,57.49
2022-08-17T21:07:42.771Z,57.62
2022-08-17T21:10:21.435Z,57.60
2022-08-17T21:13:15.341Z,57.98
2022-08-17T21:16:06.455Z,58.01
2022-08-17T21:18:39.700Z,58.25
2022-08-17T21:21:32.120Z,58.39
2022-08-17T21:24:15.297Z,58.43
2022-08-17T21:26:52.262Z,59.18
2022-08-17T21:29:31.211Z,59.28
2022-08-17T21:32:03.850Z,59.17
2022-08-17T21:34:44.467Z,59.01
2022-08-17T21:37:38.476Z,59.11
2022-08-17T21:40:18.728Z,58.93
2022-08-17T21:43:29.512Z,58.45
2022-08-17T21:46:05.644Z,58.04
2022-08-17T21:48:48.265Z,57.90
2022-08-17T21:51:28.675Z,57.91
2022-08-17T21:54:00.288Z,57.79
2022-08-17T21:56:35.528Z,57.77
2022-08-17T21:59:27.532Z,57.84
2022-08-17T22:02:08.857Z,57.92
2022-08-17T22:04:40.066Z,58.02
2022-08-17T22:07:12.122Z,58.01
2022-08-17T22:09:49.204Z,58.21
2022-08-17T22:12:24.165Z,58.60
2022-08-17T22:15:09.865Z,58.36
2022-08-17T22:17:46.305Z,58.14
2022-08-17T22:20:20.481Z,58.18
2022-08-17T22:23:06.565Z,58.26
2022-08-17T22:25:41.870Z,58.08
2022-08-17T22:28:12.221Z,58.40
2022-08-17T22:30:44.027Z,58.74
2022-08-17T22:33:33.515Z,58.79
2022-08-17T22:36:35.145Z,58.84
2022-08-17T22:39:08.835Z,58.87
2022-08-17T22:42:00.905Z,59.07
2022-08-17T22:44:46.983Z,59.32
2022-08-17T22:47:14.812Z,59.72
2022-08-17T22:49:53.314Z,60.29
2022-08-17T22:52:34.562Z,60.54
2022-08-17T22:55:34.232Z,60.69
2022-08-17T22:58:28.368Z,60.85
2022-08-17T23:00:56.368Z,61.17
2022-08-17T23:03:27.268Z,61.23
2022-08-17T23:06:08.209Z,60.44
2022-08-17T23:08:50.259Z,59.78
2022-08-17T23:11:18.047Z,60.01
2022-08-17T23:13:45.965Z,59.84
2022-08-17T23:16:14.948Z,59.94
2022-08-17T23:18:42.675Z,59.98
2022-08-17T23:21:10.444Z,60.04
2022-08-17T23:23:43.660Z,60.11
2022-08-17T23:26:11.783Z,60.38
2022-08-17T23:28:43.717Z,60.60
2022-08-17T23:31:13.118Z,60.51
2022-08-17T23:33:41.859Z,60.77
2022-08-17T23:36:15.223Z,61.17
2022-08-17T23:38:44.846Z,61.88
2022-08-17T23:41:18.832Z,61.54
2022-08-17T23:43:49.558Z,61.21
2022-08-17T23:46:18.609Z,61.03
2022-08-17T23:48:47.703Z,61.32
2022-08-17T23:51:19.281Z,61.61
2022-08-17T23:53:51.783Z,61.83
2022-08-17T23:56:25.945Z,62.20
2022-08-17T23:58:55.603Z,62.70
